sensor_id;sensor_type;location;lat;lon;timestamp;P1;durP1;ratioP1;P2;durP2;ratioP2
36221;SDS011;22266;52.340;4.962;2022-12-11T00:01:26;56.00;;;43.00;;
36221;SDS011;22266;52.340;4.962;2022-12-11T00:03:52;48.75;;;41.25;;
36221;SDS011;22266;52.340;4.962;2022-12-11T00:06:20;46.25;;;40.00;;
36221;SDS011;22266;52.340;4.962;2022-12-11T00:08:51;60.25;;;40.50;;
36221;SDS011;22266;52.340;4.962;2022-12-11T00:11:20;54.50;;;45.25;;
36221;SDS011;22266;52.340;4.962;2022-12-11T00:13:47;45.50;;;36.75;;
36221;SDS011;22266;52.340;4.962;2022-12-11T00:16:14;44.50;;;39.25;;
36221;SDS011;22266;52.340;4.962;2022-12-11T00:18:41;51.00;;;42.00;;
36221;SDS011;22266;52.340;4.962;2022-12-11T00:21:10;41.25;;;34.75;;
36221;SDS011;22266;52.340;4.962;2022-12-11T00:23:38;49.25;;;39.00;;
36221;SDS011;22266;52.340;4.962;2022-12-11T00:26:06;43.75;;;34.50;;
36221;SDS011;22266;52.340;4.962;2022-12-11T00:28:34;49.50;;;43.25;;
36221;SDS011;22266;52.340;4.962;2022-12-11T00:31:05;42.75;;;33.75;;
36221;SDS011;22266;52.340;4.962;2022-12-11T00:33:33;47.50;;;37.50;;
36221;SDS011;22266;52.340;4.962;2022-12-11T00:35:59;49.00;;;38.75;;
36221;SDS011;22266;52.340;4.962;2022-12-11T00:38:26;37.75;;;34.00;;
36221;SDS011;22266;52.340;4.962;2022-12-11T00:40:56;45.50;;;39.75;;
36221;SDS011;22266;52.340;4.962;2022-12-11T00:43:23;47.50;;;35.00;;
36221;SDS011;22266;52.340;4.962;2022-12-11T00:45:50;45.50;;;39.25;;
36221;SDS011;22266;52.340;4.962;2022-12-11T00:48:16;47.00;;;38.75;;
36221;SDS011;22266;52.340;4.962;2022-12-11T00:50:43;49.75;;;38.50;;
36221;SDS011;22266;52.340;4.962;2022-12-11T00:53:09;61.00;;;42.75;;
36221;SDS011;22266;52.340;4.962;2022-12-11T00:55:39;41.25;;;36.75;;
36221;SDS011;22266;52.340;4.962;2022-12-11T00:58:06;50.25;;;39.75;;
36221;SDS011;22266;52.340;4.962;2022-12-11T01:00:34;49.50;;;42.00;;
36221;SDS011;22266;52.340;4.962;2022-12-11T01:03:01;51.75;;;39.50;;
36221;SDS011;22266;52.340;4.962;2022-12-11T01:05:27;46.00;;;39.50;;
36221;SDS011;22266;52.340;4.962;2022-12-11T01:07:54;48.00;;;37.50;;
36221;SDS011;22266;52.340;4.962;2022-12-11T01:10:21;46.50;;;44.00;;
36221;SDS011;22266;52.340;4.962;2022-12-11T01:12:51;47.75;;;44.00;;
36221;SDS011;22266;52.340;4.962;2022-12-11T01:15:30;52.25;;;43.50;;
36221;SDS011;22266;52.340;4.962;2022-12-11T01:18:05;37.50;;;31.00;;
36221;SDS011;22266;52.340;4.962;2022-12-11T01:20:31;57.75;;;44.50;;
36221;SDS011;22266;52.340;4.962;2022-12-11T01:22:58;53.00;;;42.25;;
36221;SDS011;22266;52.340;4.962;2022-12-11T01:25:26;59.75;;;43.75;;
36221;SDS011;22266;52.340;4.962;2022-12-11T01:27:54;53.00;;;45.50;;
36221;SDS011;22266;52.340;4.962;2022-12-11T01:30:22;58.50;;;47.25;;
36221;SDS011;22266;52.340;4.962;2022-12-11T01:32:49;59.25;;;45.00;;
36221;SDS011;22266;52.340;4.962;2022-12-11T01:35:17;58.00;;;43.50;;
36221;SDS011;22266;52.340;4.962;2022-12-11T01:37:43;55.25;;;45.25;;
36221;SDS011;22266;52.340;4.962;2022-12-11T01:40:12;53.75;;;44.00;;
36221;SDS011;22266;52.340;4.962;2022-12-11T01:42:40;45.25;;;40.75;;
36221;SDS011;22266;52.340;4.962;2022-12-11T01:48:17;56.25;;;44.00;;
36221;SDS011;22266;52.340;4.962;2022-12-11T01:50:54;54.00;;;44.50;;
36221;SDS011;22266;52.340;4.962;2022-12-11T01:53:27;61.50;;;49.75;;
36221;SDS011;22266;52.340;4.962;2022-12-11T01:55:58;57.50;;;45.75;;
36221;SDS011;22266;52.340;4.962;2022-12-11T01:58:28;51.00;;;44.00;;
36221;SDS011;22266;52.340;4.962;2022-12-11T02:00:59;43.00;;;39.00;;
36221;SDS011;22266;52.340;4.962;2022-12-11T02:03:27;44.50;;;38.25;;
36221;SDS011;22266;52.340;4.962;2022-12-11T02:05:57;50.00;;;47.00;;
36221;SDS011;22266;52.340;4.962;2022-12-11T02:08:24;22.00;;;21.50;;
36221;SDS011;22266;52.340;4.962;2022-12-11T02:13:53;51.75;;;41.00;;
36221;SDS011;22266;52.340;4.962;2022-12-11T02:16:28;52.25;;;44.75;;
36221;SDS011;22266;52.340;4.962;2022-12-11T02:21:48;41.25;;;32.25;;
36221;SDS011;22266;52.340;4.962;2022-12-11T02:24:23;55.00;;;45.25;;
36221;SDS011;22266;52.340;4.962;2022-12-11T02:30:00;51.00;;;43.50;;
36221;SDS011;22266;52.340;4.962;2022-12-11T02:32:34;40.50;;;31.75;;
36221;SDS011;22266;52.340;4.962;2022-12-11T02:35:12;41.00;;;34.75;;
36221;SDS011;22266;52.340;4.962;2022-12-11T02:37:44;49.75;;;40.50;;
36221;SDS011;22266;52.340;4.962;2022-12-11T02:40:14;52.75;;;44.50;;
36221;SDS011;22266;52.340;4.962;2022-12-11T02:42:47;44.25;;;40.00;;
36221;SDS011;22266;52.340;4.962;2022-12-11T02:45:16;37.75;;;34.00;;
36221;SDS011;22266;52.340;4.962;2022-12-11T02:47:45;49.25;;;36.00;;
36221;SDS011;22266;52.340;4.962;2022-12-11T02:50:15;37.75;;;32.50;;
36221;SDS011;22266;52.340;4.962;2022-12-11T02:52:44;37.00;;;31.25;;
36221;SDS011;22266;52.340;4.962;2022-12-11T02:55:14;40.50;;;31.75;;
36221;SDS011;22266;52.340;4.962;2022-12-11T02:57:50;48.50;;;39.50;;
36221;SDS011;22266;52.340;4.962;2022-12-11T03:00:22;41.00;;;36.75;;
36221;SDS011;22266;52.340;4.962;2022-12-11T03:02:48;42.50;;;38.25;;
36221;SDS011;22266;52.340;4.962;2022-12-11T03:05:15;42.50;;;37.00;;
36221;SDS011;22266;52.340;4.962;2022-12-11T03:07:42;42.50;;;31.50;;
36221;SDS011;22266;52.340;4.962;2022-12-11T03:10:11;38.00;;;36.75;;
36221;SDS011;22266;52.340;4.962;2022-12-11T03:12:41;47.75;;;41.50;;
36221;SDS011;22266;52.340;4.962;2022-12-11T03:15:13;35.75;;;30.25;;
36221;SDS011;22266;52.340;4.962;2022-12-11T03:20:38;41.00;;;34.25;;
36221;SDS011;22266;52.340;4.962;2022-12-11T03:25:56;42.75;;;33.00;;
36221;SDS011;22266;52.340;4.962;2022-12-11T03:28:40;43.00;;;31.75;;
36221;SDS011;22266;52.340;4.962;2022-12-11T03:31:14;45.50;;;33.75;;
36221;SDS011;22266;52.340;4.962;2022-12-11T03:34:53;35.00;;;32.00;;
36221;SDS011;22266;52.340;4.962;2022-12-11T03:37:00;39.50;;;30.50;;
36221;SDS011;22266;52.340;4.962;2022-12-11T03:39:31;37.75;;;31.75;;
36221;SDS011;22266;52.340;4.962;2022-12-11T03:42:05;38.50;;;34.50;;
36221;SDS011;22266;52.340;4.962;2022-12-11T03:44:36;31.00;;;30.00;;
36221;SDS011;22266;52.340;4.962;2022-12-11T03:47:05;35.50;;;30.00;;
36221;SDS011;22266;52.340;4.962;2022-12-11T03:49:34;36.00;;;26.50;;
36221;SDS011;22266;52.340;4.962;2022-12-11T03:52:05;39.00;;;31.00;;
36221;SDS011;22266;52.340;4.962;2022-12-11T03:54:33;35.25;;;30.25;;
36221;SDS011;22266;52.340;4.962;2022-12-11T03:57:00;40.50;;;30.25;;
36221;SDS011;22266;52.340;4.962;2022-12-11T03:59:30;43.25;;;31.50;;
36221;SDS011;22266;52.340;4.962;2022-12-11T04:01:57;29.00;;;26.75;;
36221;SDS011;22266;52.340;4.962;2022-12-11T04:04:23;37.75;;;32.00;;
36221;SDS011;22266;52.340;4.962;2022-12-11T04:06:50;37.00;;;28.00;;
36221;SDS011;22266;52.340;4.962;2022-12-11T04:09:16;28.25;;;28.25;;
36221;SDS011;22266;52.340;4.962;2022-12-11T04:11:43;32.25;;;26.50;;
36221;SDS011;22266;52.340;4.962;2022-12-11T04:14:10;41.50;;;31.00;;
36221;SDS011;22266;52.340;4.962;2022-12-11T04:16:58;37.50;;;30.25;;
36221;SDS011;22266;52.340;4.962;2022-12-11T04:19:25;29.25;;;24.00;;
36221;SDS011;22266;52.340;4.962;2022-12-11T04:22:10;29.25;;;23.00;;
36221;SDS011;22266;52.340;4.962;2022-12-11T04:24:56;29.00;;;27.25;;
36221;SDS011;22266;52.340;4.962;2022-12-11T04:27:23;31.00;;;27.75;;
36221;SDS011;22266;52.340;4.962;2022-12-11T04:30:09;30.50;;;26.25;;
36221;SDS011;22266;52.340;4.962;2022-12-11T04:32:39;31.00;;;24.25;;
36221;SDS011;22266;52.340;4.962;2022-12-11T04:35:06;25.75;;;23.00;;
36221;SDS011;22266;52.340;4.962;2022-12-11T04:37:34;26.50;;;24.75;;
36221;SDS011;22266;52.340;4.962;2022-12-11T04:40:03;30.25;;;28.00;;
36221;SDS011;22266;52.340;4.962;2022-12-11T04:42:31;26.00;;;23.00;;
36221;SDS011;22266;52.340;4.962;2022-12-11T04:44:57;34.50;;;24.75;;
36221;SDS011;22266;52.340;4.962;2022-12-11T04:47:24;25.25;;;23.00;;
36221;SDS011;22266;52.340;4.962;2022-12-11T04:49:50;22.75;;;21.00;;
36221;SDS011;22266;52.340;4.962;2022-12-11T04:52:16;30.25;;;27.75;;
36221;SDS011;22266;52.340;4.962;2022-12-11T04:54:43;28.50;;;20.75;;
36221;SDS011;22266;52.340;4.962;2022-12-11T04:57:09;35.50;;;30.50;;
36221;SDS011;22266;52.340;4.962;2022-12-11T04:59:36;29.50;;;22.75;;
36221;SDS011;22266;52.340;4.962;2022-12-11T05:02:03;25.75;;;21.25;;
36221;SDS011;22266;52.340;4.962;2022-12-11T05:04:30;28.25;;;26.50;;
36221;SDS011;22266;52.340;4.962;2022-12-11T05:06:58;32.50;;;24.00;;
36221;SDS011;22266;52.340;4.962;2022-12-11T05:09:25;22.75;;;17.25;;
36221;SDS011;22266;52.340;4.962;2022-12-11T05:11:52;31.75;;;30.25;;
36221;SDS011;22266;52.340;4.962;2022-12-11T05:14:19;31.50;;;28.50;;
36221;SDS011;22266;52.340;4.962;2022-12-11T05:16:46;28.50;;;25.75;;
36221;SDS011;22266;52.340;4.962;2022-12-11T05:19:12;33.75;;;30.25;;
36221;SDS011;22266;52.340;4.962;2022-12-11T05:21:39;27.50;;;23.75;;
36221;SDS011;22266;52.340;4.962;2022-12-11T05:24:05;28.75;;;21.75;;
36221;SDS011;22266;52.340;4.962;2022-12-11T05:26:32;30.75;;;26.50;;
36221;SDS011;22266;52.340;4.962;2022-12-11T05:28:58;29.50;;;25.00;;
36221;SDS011;22266;52.340;4.962;2022-12-11T05:31:25;29.50;;;24.50;;
36221;SDS011;22266;52.340;4.962;2022-12-11T05:33:52;31.25;;;29.75;;
36221;SDS011;22266;52.340;4.962;2022-12-11T05:36:20;32.50;;;28.75;;
36221;SDS011;22266;52.340;4.962;2022-12-11T05:38:51;32.50;;;27.25;;
36221;SDS011;22266;52.340;4.962;2022-12-11T05:41:19;22.50;;;22.00;;
36221;SDS011;22266;52.340;4.962;2022-12-11T05:43:47;24.75;;;23.00;;
36221;SDS011;22266;52.340;4.962;2022-12-11T05:46:15;29.75;;;24.75;;
36221;SDS011;22266;52.340;4.962;2022-12-11T05:48:45;43.25;;;27.75;;
36221;SDS011;22266;52.340;4.962;2022-12-11T05:51:14;40.25;;;31.00;;
36221;SDS011;22266;52.340;4.962;2022-12-11T05:53:42;34.75;;;28.50;;
36221;SDS011;22266;52.340;4.962;2022-12-11T05:56:11;26.75;;;23.00;;
36221;SDS011;22266;52.340;4.962;2022-12-11T05:58:39;29.25;;;22.00;;
36221;SDS011;22266;52.340;4.962;2022-12-11T06:01:07;23.00;;;22.50;;
36221;SDS011;22266;52.340;4.962;2022-12-11T06:03:35;36.25;;;27.75;;
36221;SDS011;22266;52.340;4.962;2022-12-11T06:06:03;44.25;;;29.25;;
36221;SDS011;22266;52.340;4.962;2022-12-11T06:08:30;28.75;;;27.50;;
36221;SDS011;22266;52.340;4.962;2022-12-11T06:10:57;32.75;;;26.25;;
36221;SDS011;22266;52.340;4.962;2022-12-11T06:13:24;43.25;;;26.75;;
36221;SDS011;22266;52.340;4.962;2022-12-11T06:15:51;32.25;;;30.25;;
36221;SDS011;22266;52.340;4.962;2022-12-11T06:18:18;26.50;;;24.50;;
36221;SDS011;22266;52.340;4.962;2022-12-11T06:20:44;29.75;;;23.25;;
36221;SDS011;22266;52.340;4.962;2022-12-11T06:23:11;28.25;;;24.50;;
36221;SDS011;22266;52.340;4.962;2022-12-11T06:25:38;35.25;;;31.25;;
36221;SDS011;22266;52.340;4.962;2022-12-11T06:28:05;36.25;;;35.00;;
36221;SDS011;22266;52.340;4.962;2022-12-11T06:30:32;30.00;;;25.25;;
36221;SDS011;22266;52.340;4.962;2022-12-11T06:33:04;34.75;;;29.25;;
36221;SDS011;22266;52.340;4.962;2022-12-11T06:35:31;33.00;;;27.25;;
36221;SDS011;22266;52.340;4.962;2022-12-11T06:38:05;33.00;;;27.00;;
36221;SDS011;22266;52.340;4.962;2022-12-11T06:40:31;35.25;;;29.50;;
36221;SDS011;22266;52.340;4.962;2022-12-11T06:42:58;28.00;;;21.50;;
36221;SDS011;22266;52.340;4.962;2022-12-11T06:45:24;36.00;;;31.25;;
36221;SDS011;22266;52.340;4.962;2022-12-11T06:47:51;50.00;;;39.00;;
36221;SDS011;22266;52.340;4.962;2022-12-11T06:50:17;34.25;;;30.25;;
36221;SDS011;22266;52.340;4.962;2022-12-11T06:52:44;37.75;;;30.00;;
36221;SDS011;22266;52.340;4.962;2022-12-11T06:55:10;37.25;;;30.00;;
36221;SDS011;22266;52.340;4.962;2022-12-11T06:57:37;30.75;;;27.75;;
36221;SDS011;22266;52.340;4.962;2022-12-11T07:00:03;25.25;;;24.00;;
36221;SDS011;22266;52.340;4.962;2022-12-11T07:02:30;40.50;;;34.00;;
36221;SDS011;22266;52.340;4.962;2022-12-11T07:04:57;36.75;;;30.75;;
36221;SDS011;22266;52.340;4.962;2022-12-11T07:07:23;42.25;;;34.00;;
36221;SDS011;22266;52.340;4.962;2022-12-11T07:09:50;37.75;;;31.75;;
36221;SDS011;22266;52.340;4.962;2022-12-11T07:12:16;28.25;;;24.75;;
36221;SDS011;22266;52.340;4.962;2022-12-11T07:14:43;29.25;;;24.75;;
36221;SDS011;22266;52.340;4.962;2022-12-11T07:17:09;29.50;;;26.50;;
36221;SDS011;22266;52.340;4.962;2022-12-11T07:19:36;29.50;;;22.50;;
36221;SDS011;22266;52.340;4.962;2022-12-11T07:22:02;30.50;;;29.25;;
36221;SDS011;22266;52.340;4.962;2022-12-11T07:24:29;34.25;;;26.75;;
36221;SDS011;22266;52.340;4.962;2022-12-11T07:26:55;29.25;;;23.00;;
36221;SDS011;22266;52.340;4.962;2022-12-11T07:29:21;32.50;;;26.75;;
36221;SDS011;22266;52.340;4.962;2022-12-11T07:31:48;34.00;;;32.25;;
36221;SDS011;22266;52.340;4.962;2022-12-11T07:34:15;26.00;;;23.75;;
36221;SDS011;22266;52.340;4.962;2022-12-11T07:36:42;26.00;;;24.25;;
36221;SDS011;22266;52.340;4.962;2022-12-11T07:39:10;31.50;;;27.00;;
36221;SDS011;22266;52.340;4.962;2022-12-11T07:41:37;32.75;;;26.00;;
36221;SDS011;22266;52.340;4.962;2022-12-11T07:44:09;26.00;;;25.50;;
36221;SDS011;22266;52.340;4.962;2022-12-11T07:46:36;31.75;;;26.75;;
36221;SDS011;22266;52.340;4.962;2022-12-11T07:49:03;28.00;;;23.00;;
36221;SDS011;22266;52.340;4.962;2022-12-11T07:51:32;31.00;;;25.00;;
36221;SDS011;22266;52.340;4.962;2022-12-11T07:54:02;30.00;;;26.75;;
36221;SDS011;22266;52.340;4.962;2022-12-11T07:56:30;38.75;;;27.50;;
36221;SDS011;22266;52.340;4.962;2022-12-11T07:59:01;25.75;;;24.00;;
36221;SDS011;22266;52.340;4.962;2022-12-11T08:01:29;24.50;;;19.25;;
36221;SDS011;22266;52.340;4.962;2022-12-11T08:03:57;25.25;;;18.75;;
36221;SDS011;22266;52.340;4.962;2022-12-11T08:06:24;25.25;;;20.25;;
36221;SDS011;22266;52.340;4.962;2022-12-11T08:08:58;22.50;;;17.25;;
36221;SDS011;22266;52.340;4.962;2022-12-11T08:11:26;29.25;;;25.00;;
36221;SDS011;22266;52.340;4.962;2022-12-11T08:13:53;29.75;;;19.25;;
36221;SDS011;22266;52.340;4.962;2022-12-11T08:16:20;26.75;;;23.75;;
36221;SDS011;22266;52.340;4.962;2022-12-11T08:18:47;31.50;;;22.75;;
36221;SDS011;22266;52.340;4.962;2022-12-11T08:21:19;42.75;;;27.75;;
36221;SDS011;22266;52.340;4.962;2022-12-11T08:23:50;32.50;;;25.25;;
36221;SDS011;22266;52.340;4.962;2022-12-11T08:26:19;33.00;;;27.00;;
36221;SDS011;22266;52.340;4.962;2022-12-11T08:28:50;31.50;;;27.50;;
36221;SDS011;22266;52.340;4.962;2022-12-11T08:31:17;34.00;;;28.25;;
36221;SDS011;22266;52.340;4.962;2022-12-11T08:33:45;30.25;;;27.00;;
36221;SDS011;22266;52.340;4.962;2022-12-11T08:36:13;40.00;;;31.50;;
36221;SDS011;22266;52.340;4.962;2022-12-11T08:38:41;38.75;;;30.75;;
36221;SDS011;22266;52.340;4.962;2022-12-11T08:41:11;37.00;;;32.00;;
36221;SDS011;22266;52.340;4.962;2022-12-11T08:43:41;30.50;;;24.50;;
36221;SDS011;22266;52.340;4.962;2022-12-11T08:46:09;33.50;;;26.75;;
36221;SDS011;22266;52.340;4.962;2022-12-11T08:48:38;32.25;;;26.50;;
36221;SDS011;22266;52.340;4.962;2022-12-11T08:51:06;38.00;;;26.25;;
36221;SDS011;22266;52.340;4.962;2022-12-11T08:53:35;37.50;;;28.00;;
36221;SDS011;22266;52.340;4.962;2022-12-11T08:56:02;34.00;;;32.00;;
36221;SDS011;22266;52.340;4.962;2022-12-11T08:58:34;37.50;;;31.25;;
36221;SDS011;22266;52.340;4.962;2022-12-11T09:01:05;30.75;;;26.50;;
36221;SDS011;22266;52.340;4.962;2022-12-11T09:03:34;30.50;;;27.25;;
36221;SDS011;22266;52.340;4.962;2022-12-11T09:06:05;30.25;;;25.50;;
36221;SDS011;22266;52.340;4.962;2022-12-11T09:08:32;27.75;;;23.25;;
36221;SDS011;22266;52.340;4.962;2022-12-11T09:11:10;37.75;;;32.00;;
36221;SDS011;22266;52.340;4.962;2022-12-11T09:13:39;32.25;;;30.50;;
36221;SDS011;22266;52.340;4.962;2022-12-11T09:16:07;39.00;;;33.50;;
36221;SDS011;22266;52.340;4.962;2022-12-11T09:18:36;34.75;;;27.75;;
36221;SDS011;22266;52.340;4.962;2022-12-11T09:21:04;33.50;;;27.75;;
36221;SDS011;22266;52.340;4.962;2022-12-11T09:23:33;41.25;;;33.00;;
36221;SDS011;22266;52.340;4.962;2022-12-11T09:26:02;28.25;;;26.75;;
36221;SDS011;22266;52.340;4.962;2022-12-11T09:28:31;33.25;;;32.25;;
36221;SDS011;22266;52.340;4.962;2022-12-11T09:30:58;30.75;;;24.25;;
36221;SDS011;22266;52.340;4.962;2022-12-11T09:33:25;26.75;;;24.75;;
36221;SDS011;22266;52.340;4.962;2022-12-11T09:35:58;38.50;;;30.50;;
36221;SDS011;22266;52.340;4.962;2022-12-11T09:38:25;31.00;;;28.00;;
36221;SDS011;22266;52.340;4.962;2022-12-11T09:40:52;30.75;;;23.75;;
36221;SDS011;22266;52.340;4.962;2022-12-11T09:46:09;34.25;;;27.75;;
36221;SDS011;22266;52.340;4.962;2022-12-11T09:48:39;44.00;;;33.50;;
36221;SDS011;22266;52.340;4.962;2022-12-11T09:51:20;28.25;;;22.25;;
36221;SDS011;22266;52.340;4.962;2022-12-11T09:53:53;39.00;;;31.00;;
36221;SDS011;22266;52.340;4.962;2022-12-11T10:02:14;20.25;;;16.25;;
36221;SDS011;22266;52.340;4.962;2022-12-11T10:05:03;18.25;;;17.25;;
36221;SDS011;22266;52.340;4.962;2022-12-11T10:07:45;29.50;;;17.00;;
36221;SDS011;22266;52.340;4.962;2022-12-11T10:19:34;21.00;;;21.00;;
36221;SDS011;22266;52.340;4.962;2022-12-11T10:22:01;30.25;;;25.50;;
36221;SDS011;22266;52.340;4.962;2022-12-11T10:24:32;28.50;;;26.00;;
36221;SDS011;22266;52.340;4.962;2022-12-11T10:27:27;35.50;;;30.00;;
36221;SDS011;22266;52.340;4.962;2022-12-11T10:30:00;32.25;;;28.75;;
36221;SDS011;22266;52.340;4.962;2022-12-11T10:35:15;45.50;;;34.00;;
36221;SDS011;22266;52.340;4.962;2022-12-11T10:37:45;34.25;;;26.25;;
36221;SDS011;22266;52.340;4.962;2022-12-11T10:40:12;34.50;;;31.75;;
36221;SDS011;22266;52.340;4.962;2022-12-11T10:42:39;32.50;;;26.25;;
36221;SDS011;22266;52.340;4.962;2022-12-11T10:45:14;36.00;;;32.25;;
36221;SDS011;22266;52.340;4.962;2022-12-11T10:47:41;38.50;;;31.50;;
36221;SDS011;22266;52.340;4.962;2022-12-11T10:50:20;35.75;;;26.50;;
36221;SDS011;22266;52.340;4.962;2022-12-11T10:52:48;39.25;;;31.50;;
36221;SDS011;22266;52.340;4.962;2022-12-11T10:55:24;33.25;;;30.00;;
36221;SDS011;22266;52.340;4.962;2022-12-11T10:57:57;33.00;;;31.25;;
36221;SDS011;22266;52.340;4.962;2022-12-11T11:00:30;29.25;;;25.00;;
36221;SDS011;22266;52.340;4.962;2022-12-11T11:03:00;42.75;;;32.25;;
36221;SDS011;22266;52.340;4.962;2022-12-11T11:05:33;35.25;;;27.00;;
36221;SDS011;22266;52.340;4.962;2022-12-11T11:08:11;42.00;;;36.25;;
36221;SDS011;22266;52.340;4.962;2022-12-11T11:13:19;30.50;;;25.75;;
36221;SDS011;22266;52.340;4.962;2022-12-11T11:15:48;33.25;;;25.00;;
36221;SDS011;22266;52.340;4.962;2022-12-11T11:18:25;34.75;;;32.25;;
36221;SDS011;22266;52.340;4.962;2022-12-11T11:20:53;31.00;;;29.75;;
36221;SDS011;22266;52.340;4.962;2022-12-11T11:23:20;27.75;;;24.25;;
36221;SDS011;22266;52.340;4.962;2022-12-11T11:25:49;30.75;;;28.50;;
36221;SDS011;22266;52.340;4.962;2022-12-11T11:28:20;39.75;;;29.50;;
36221;SDS011;22266;52.340;4.962;2022-12-11T11:31:10;19.75;;;19.75;;
36221;SDS011;22266;52.340;4.962;2022-12-11T11:33:48;25.25;;;24.75;;
36221;SDS011;22266;52.340;4.962;2022-12-11T11:36:21;38.25;;;30.75;;
36221;SDS011;22266;52.340;4.962;2022-12-11T11:38:56;31.50;;;27.00;;
36221;SDS011;22266;52.340;4.962;2022-12-11T11:41:33;43.25;;;34.50;;
36221;SDS011;22266;52.340;4.962;2022-12-11T11:44:08;32.50;;;25.50;;
36221;SDS011;22266;52.340;4.962;2022-12-11T11:46:43;43.25;;;36.25;;
36221;SDS011;22266;52.340;4.962;2022-12-11T11:49:20;36.75;;;34.25;;
36221;SDS011;22266;52.340;4.962;2022-12-11T11:52:15;32.50;;;30.50;;
36221;SDS011;22266;52.340;4.962;2022-12-11T11:55:07;36.75;;;31.75;;
36221;SDS011;22266;52.340;4.962;2022-12-11T11:57:49;29.75;;;26.00;;
36221;SDS011;22266;52.340;4.962;2022-12-11T12:00:23;34.50;;;26.00;;
36221;SDS011;22266;52.340;4.962;2022-12-11T12:02:59;31.50;;;28.75;;
36221;SDS011;22266;52.340;4.962;2022-12-11T12:05:40;37.75;;;27.50;;
36221;SDS011;22266;52.340;4.962;2022-12-11T12:11:37;37.00;;;31.00;;
36221;SDS011;22266;52.340;4.962;2022-12-11T12:14:29;38.00;;;31.00;;
36221;SDS011;22266;52.340;4.962;2022-12-11T12:28:39;35.00;;;28.25;;
36221;SDS011;22266;52.340;4.962;2022-12-11T12:31:30;28.75;;;25.75;;
36221;SDS011;22266;52.340;4.962;2022-12-11T12:48:13;34.50;;;31.25;;
36221;SDS011;22266;52.340;4.962;2022-12-11T12:50:41;33.25;;;28.75;;
36221;SDS011;22266;52.340;4.962;2022-12-11T12:53:12;44.00;;;32.50;;
36221;SDS011;22266;52.340;4.962;2022-12-11T12:55:48;40.00;;;34.00;;
36221;SDS011;22266;52.340;4.962;2022-12-11T13:01:14;41.00;;;35.00;;
36221;SDS011;22266;52.340;4.962;2022-12-11T13:03:54;34.25;;;28.50;;
36221;SDS011;22266;52.340;4.962;2022-12-11T13:09:16;33.25;;;28.50;;
36221;SDS011;22266;52.340;4.962;2022-12-11T13:11:43;37.75;;;31.50;;
36221;SDS011;22266;52.340;4.962;2022-12-11T13:16:41;35.00;;;24.50;;
36221;SDS011;22266;52.340;4.962;2022-12-11T13:21:55;31.25;;;27.50;;
36221;SDS011;22266;52.340;4.962;2022-12-11T13:24:24;32.25;;;24.00;;
36221;SDS011;22266;52.340;4.962;2022-12-11T13:26:52;39.00;;;26.25;;
36221;SDS011;22266;52.340;4.962;2022-12-11T13:34:35;33.25;;;24.75;;
36221;SDS011;22266;52.340;4.962;2022-12-11T13:37:04;21.00;;;19.75;;
36221;SDS011;22266;52.340;4.962;2022-12-11T13:39:33;17.25;;;15.25;;
36221;SDS011;22266;52.340;4.962;2022-12-11T13:42:19;22.00;;;20.25;;
36221;SDS011;22266;52.340;4.962;2022-12-11T13:44:50;23.00;;;18.75;;
36221;SDS011;22266;52.340;4.962;2022-12-11T13:47:17;21.75;;;20.00;;
36221;SDS011;22266;52.340;4.962;2022-12-11T13:49:47;31.25;;;24.75;;
36221;SDS011;22266;52.340;4.962;2022-12-11T13:52:19;39.25;;;33.25;;
36221;SDS011;22266;52.340;4.962;2022-12-11T13:54:49;33.00;;;26.00;;
36221;SDS011;22266;52.340;4.962;2022-12-11T13:57:18;36.75;;;29.75;;
36221;SDS011;22266;52.340;4.962;2022-12-11T13:59:54;32.00;;;27.00;;
36221;SDS011;22266;52.340;4.962;2022-12-11T14:02:28;43.00;;;32.00;;
36221;SDS011;22266;52.340;4.962;2022-12-11T14:05:00;37.50;;;29.50;;
36221;SDS011;22266;52.340;4.962;2022-12-11T14:07:31;32.25;;;31.50;;
36221;SDS011;22266;52.340;4.962;2022-12-11T14:10:02;42.50;;;37.00;;
36221;SDS011;22266;52.340;4.962;2022-12-11T14:12:34;31.50;;;29.75;;
36221;SDS011;22266;52.340;4.962;2022-12-11T14:15:01;42.50;;;37.00;;
36221;SDS011;22266;52.340;4.962;2022-12-11T14:17:30;29.75;;;24.00;;
36221;SDS011;22266;52.340;4.962;2022-12-11T14:19:59;29.50;;;27.00;;
36221;SDS011;22266;52.340;4.962;2022-12-11T14:22:29;43.75;;;34.75;;
36221;SDS011;22266;52.340;4.962;2022-12-11T14:24:56;36.75;;;33.00;;
36221;SDS011;22266;52.340;4.962;2022-12-11T14:27:25;38.25;;;32.50;;
36221;SDS011;22266;52.340;4.962;2022-12-11T14:29:52;34.50;;;27.25;;
36221;SDS011;22266;52.340;4.962;2022-12-11T14:32:41;44.25;;;31.75;;
36221;SDS011;22266;52.340;4.962;2022-12-11T14:35:17;42.50;;;35.50;;
36221;SDS011;22266;52.340;4.962;2022-12-11T14:37:49;47.50;;;43.25;;
36221;SDS011;22266;52.340;4.962;2022-12-11T14:40:17;42.00;;;37.25;;
36221;SDS011;22266;52.340;4.962;2022-12-11T14:42:50;48.25;;;41.00;;
36221;SDS011;22266;52.340;4.962;2022-12-11T14:45:30;47.50;;;38.50;;
36221;SDS011;22266;52.340;4.962;2022-12-11T14:48:02;37.50;;;30.50;;
36221;SDS011;22266;52.340;4.962;2022-12-11T14:53:28;41.25;;;31.75;;
36221;SDS011;22266;52.340;4.962;2022-12-11T14:56:04;36.00;;;29.50;;
36221;SDS011;22266;52.340;4.962;2022-12-11T14:58:32;39.75;;;27.00;;
36221;SDS011;22266;52.340;4.962;2022-12-11T15:01:19;35.50;;;27.50;;
36221;SDS011;22266;52.340;4.962;2022-12-11T15:03:47;36.25;;;30.25;;
36221;SDS011;22266;52.340;4.962;2022-12-11T15:06:24;42.75;;;39.25;;
36221;SDS011;22266;52.340;4.962;2022-12-11T15:08:54;42.50;;;35.25;;
36221;SDS011;22266;52.340;4.962;2022-12-11T15:11:21;43.75;;;29.50;;
36221;SDS011;22266;52.340;4.962;2022-12-11T15:16:24;48.75;;;36.00;;
36221;SDS011;22266;52.340;4.962;2022-12-11T15:18:54;33.50;;;29.00;;
36221;SDS011;22266;52.340;4.962;2022-12-11T15:21:31;30.00;;;25.50;;
36221;SDS011;22266;52.340;4.962;2022-12-11T15:24:01;51.25;;;40.25;;
36221;SDS011;22266;52.340;4.962;2022-12-11T15:29:24;45.25;;;38.50;;
36221;SDS011;22266;52.340;4.962;2022-12-11T15:34:44;42.75;;;36.75;;
36221;SDS011;22266;52.340;4.962;2022-12-11T15:37:20;37.75;;;33.50;;
36221;SDS011;22266;52.340;4.962;2022-12-11T15:39:59;49.50;;;42.00;;
36221;SDS011;22266;52.340;4.962;2022-12-11T15:42:30;49.25;;;38.25;;
36221;SDS011;22266;52.340;4.962;2022-12-11T15:45:00;45.25;;;35.25;;
36221;SDS011;22266;52.340;4.962;2022-12-11T15:47:28;51.50;;;41.50;;
36221;SDS011;22266;52.340;4.962;2022-12-11T15:49:57;37.25;;;33.50;;
36221;SDS011;22266;52.340;4.962;2022-12-11T15:52:32;33.00;;;31.50;;
36221;SDS011;22266;52.340;4.962;2022-12-11T15:54:59;44.00;;;31.50;;
36221;SDS011;22266;52.340;4.962;2022-12-11T15:57:26;39.25;;;31.75;;
36221;SDS011;22266;52.340;4.962;2022-12-11T15:59:52;35.75;;;27.75;;
36221;SDS011;22266;52.340;4.962;2022-12-11T16:02:20;43.75;;;26.75;;
36221;SDS011;22266;52.340;4.962;2022-12-11T16:04:47;42.25;;;35.25;;
36221;SDS011;22266;52.340;4.962;2022-12-11T16:07:17;46.00;;;33.75;;
36221;SDS011;22266;52.340;4.962;2022-12-11T16:09:46;42.00;;;34.50;;
36221;SDS011;22266;52.340;4.962;2022-12-11T16:12:12;43.25;;;36.25;;
36221;SDS011;22266;52.340;4.962;2022-12-11T16:14:40;36.25;;;32.00;;
36221;SDS011;22266;52.340;4.962;2022-12-11T16:17:07;43.75;;;38.25;;